Time;durP1;ratioP1;P1;durP2;ratioP2;P2;SDS_P1;SDS_P2;PMS_P1;PMS_P2;Temp;Humidity;BMP_temperature;BMP_pressure;BME280_temperature;BME280_humidity;BME280_pressure;Samples;Min_cycle;Max_cycle;Signal;HPM_P1;HPM_P2
2023/02/26 00:01:37;;;;;;;2.30;1.38;;;;;7.60;101690.00;;;;5089095;28;20203;-74
2023/02/26 00:04:06;;;;;;;3.33;1.88;;;;;7.60;101690.00;;;;5077711;28;20191;-74
2023/02/26 00:06:36;;;;;;;5.18;2.00;;;;;7.60;101692.00;;;;5087052;28;20194;-74
2023/02/26 00:09:04;;;;;;;5.75;1.38;;;;;7.60;101687.00;;;;5088498;28;20222;-74
2023/02/26 00:11:32;;;;;;;3.60;1.67;;;;;7.70;101695.00;;;;5090892;28;20629;-74
2023/02/26 00:14:01;;;;;;;3.00;1.38;;;;;7.70;101692.00;;;;5089043;28;20629;-74
2023/02/26 00:16:31;;;;;;;3.45;1.42;;;;;7.70;101695.00;;;;5087860;28;20237;-74
2023/02/26 00:19:00;;;;;;;2.20;1.23;;;;;7.80;101698.00;;;;5089221;28;20211;-74
2023/02/26 00:21:30;;;;;;;3.40;1.60;;;;;7.80;101706.00;;;;5087445;28;20202;-74
2023/02/26 00:23:59;;;;;;;1.67;0.90;;;;;7.80;101704.00;;;;5083658;28;20205;-74
2023/02/26 00:26:28;;;;;;;2.38;0.90;;;;;7.80;101711.00;;;;5083807;28;20190;-74
2023/02/26 00:28:56;;;;;;;1.23;0.70;;;;;7.80;101716.00;;;;5089768;28;20218;-74
2023/02/26 00:31:25;;;;;;;1.90;0.70;;;;;7.80;101718.00;;;;5088880;28;20247;-74
2023/02/26 00:33:54;;;;;;;2.95;0.80;;;;;7.80;101736.00;;;;5081480;28;20199;-74
2023/02/26 00:36:24;;;;;;;3.33;0.90;;;;;7.80;101738.00;;;;5086102;28;20202;-74
2023/02/26 00:39:05;;;;;;;3.13;1.00;;;;;7.70;101738.00;;;;5088266;28;20202;-74
2023/02/26 00:41:35;;;;;;;2.63;0.70;;;;;7.80;101747.00;;;;5090482;28;20201;-74
2023/02/26 00:44:02;;;;;;;2.78;0.70;;;;;7.80;101760.00;;;;5087533;28;20202;-74
2023/02/26 00:46:40;;;;;;;2.35;0.57;;;;;7.70;101754.00;;;;5087720;28;20209;-74
2023/02/26 00:49:16;;;;;;;2.70;0.50;;;;;7.80;101765.00;;;;5089086;28;20229;-74
2023/02/26 00:51:49;;;;;;;1.55;0.50;;;;;7.70;101762.00;;;;5088336;28;20194;-74
2023/02/26 00:54:21;;;;;;;0.90;0.60;;;;;7.80;101767.00;;;;5088041;28;20198;-74
2023/02/26 00:56:49;;;;;;;1.50;0.52;;;;;7.80;101763.00;;;;5084210;28;20252;-74
2023/02/26 00:59:16;;;;;;;0.60;0.32;;;;;7.80;101761.00;;;;5081948;28;20218;-74
2023/02/26 01:01:45;;;;;;;0.82;0.40;;;;;7.80;101759.00;;;;5085651;28;20695;-74
2023/02/26 01:04:14;;;;;;;0.95;0.40;;;;;7.80;101768.00;;;;5087498;28;20195;-74
2023/02/26 01:06:45;;;;;;;1.40;0.70;;;;;7.80;101753.00;;;;5088307;28;20198;-74
2023/02/26 01:09:21;;;;;;;0.80;0.20;;;;;7.80;101761.00;;;;5087737;28;20241;-74
2023/02/26 01:11:50;;;;;;;0.77;0.25;;;;;7.80;101762.00;;;;5087779;28;20198;-74
2023/02/26 01:14:18;;;;;;;1.73;0.75;;;;;7.80;101770.00;;;;5087320;28;20927;-74
2023/02/26 01:16:53;;;;;;;2.15;0.30;;;;;7.80;101762.00;;;;5087034;28;20203;-74
2023/02/26 01:19:28;;;;;;;2.15;0.68;;;;;7.80;101769.00;;;;5075029;28;20201;-74
2023/02/26 01:22:03;;;;;;;1.35;0.40;;;;;7.80;101759.00;;;;5087053;28;20201;-74
2023/02/26 01:24:34;;;;;;;2.33;0.50;;;;;7.80;101769.00;;;;5081089;28;20198;-74
2023/02/26 01:27:01;;;;;;;1.58;0.52;;;;;7.80;101782.00;;;;5087399;28;20667;-74
2023/02/26 01:29:29;;;;;;;2.47;0.45;;;;;7.80;101790.00;;;;5087623;28;20225;-74
2023/02/26 01:32:05;;;;;;;2.08;0.40;;;;;7.80;101785.00;;;;5086223;28;20202;-74
2023/02/26 01:34:39;;;;;;;1.77;0.38;;;;;7.80;101783.00;;;;5085045;28;20202;-74
2023/02/26 01:37:17;;;;;;;2.92;0.60;;;;;7.80;101789.00;;;;5087428;28;20200;-74
2023/02/26 01:39:48;;;;;;;0.93;0.40;;;;;7.80;101791.00;;;;5086571;28;20202;-74
2023/02/26 01:42:19;;;;;;;2.03;0.43;;;;;7.90;101791.00;;;;5087271;28;20202;-74
2023/02/26 01:44:55;;;;;;;2.00;0.45;;;;;7.80;101787.00;;;;5086559;28;20194;-74
2023/02/26 01:47:33;;;;;;;1.90;0.63;;;;;7.80;101797.00;;;;5087790;28;20226;-74
2023/02/26 01:50:11;;;;;;;4.10;0.63;;;;;7.80;101801.00;;;;5085733;28;20221;-74
2023/02/26 01:53:15;;;;;;;9.45;0.40;;;;;7.70;101801.00;;;;5089588;28;20197;-74
2023/02/26 01:55:43;;;;;;;0.70;0.28;;;;;7.80;101803.00;;;;5086588;28;20212;-74
2023/02/26 01:58:11;;;;;;;2.22;0.30;;;;;7.80;101801.00;;;;5089845;28;20206;-74
2023/02/26 02:00:38;;;;;;;1.45;0.35;;;;;7.80;101812.00;;;;5087794;28;20206;-74
2023/02/26 02:03:07;;;;;;;1.70;0.30;;;;;7.80;101797.00;;;;5089067;28;20205;-74
2023/02/26 02:05:41;;;;;;;2.95;0.30;;;;;7.70;101798.00;;;;5085197;28;20656;-74
2023/02/26 02:08:08;;;;;;;1.00;0.45;;;;;7.70;101809.00;;;;5086521;28;20198;-74
2023/02/26 02:10:36;;;;;;;3.05;0.50;;;;;7.70;101816.00;;;;5088724;28;20232;-74
2023/02/26 02:13:13;;;;;;;1.30;0.60;;;;;7.70;101813.00;;;;5087181;28;20222;-74
2023/02/26 02:15:48;;;;;;;5.35;0.60;;;;;7.60;101819.00;;;;5084799;28;20201;-74
2023/02/26 02:18:23;;;;;;;3.33;0.50;;;;;7.60;101826.00;;;;5084788;28;20213;-74
2023/02/26 02:21:29;;;;;;;2.08;0.40;;;;;7.50;101823.00;;;;5083928;28;20190;-74
2023/02/26 02:24:02;;;;;;;5.95;0.85;;;;;7.60;101823.00;;;;5084670;28;20202;-74
2023/02/26 02:26:52;;;;;;;2.20;0.73;;;;;7.50;101824.00;;;;5084525;28;20743;-74
2023/02/26 02:29:52;;;;;;;5.20;0.47;;;;;7.50;101827.00;;;;5080290;28;20214;-74
2023/02/26 02:32:25;;;;;;;1.75;0.52;;;;;7.50;101836.00;;;;5085231;28;20687;-74
2023/02/26 02:34:58;;;;;;;1.48;0.50;;;;;7.50;101834.00;;;;5085249;28;20579;-74
2023/02/26 02:37:30;;;;;;;1.45;0.40;;;;;7.50;101838.00;;;;5084398;28;20683;-74
2023/02/26 02:40:01;;;;;;;1.70;0.60;;;;;7.50;101842.00;;;;5084865;28;20209;-74
2023/02/26 02:42:32;;;;;;;1.95;0.50;;;;;7.50;101840.00;;;;5087080;28;20195;-75
2023/02/26 02:45:06;;;;;;;1.35;0.38;;;;;7.50;101843.00;;;;5084905;28;20204;-74
2023/02/26 02:47:40;;;;;;;0.90;0.40;;;;;7.50;101844.00;;;;5087034;28;20226;-74
2023/02/26 02:50:12;;;;;;;2.10;0.30;;;;;7.50;101842.00;;;;5085210;28;20221;-74
2023/02/26 02:52:44;;;;;;;1.83;0.30;;;;;7.40;101851.00;;;;5085926;28;20292;-74
2023/02/26 02:55:16;;;;;;;1.17;0.32;;;;;7.40;101853.00;;;;5087166;28;20197;-74
2023/02/26 02:57:48;;;;;;;1.02;0.30;;;;;7.40;101861.00;;;;5086192;28;20206;-74
2023/02/26 03:00:20;;;;;;;0.98;0.52;;;;;7.40;101858.00;;;;5084638;28;20570;-74
2023/02/26 03:02:54;;;;;;;1.58;0.43;;;;;7.40;101857.00;;;;5084545;28;20285;-74
2023/02/26 03:05:22;;;;;;;1.75;0.43;;;;;7.40;101862.00;;;;5084982;28;20191;-74
2023/02/26 03:07:53;;;;;;;2.72;0.47;;;;;7.40;101871.00;;;;5086322;28;20573;-73
2023/02/26 03:10:21;;;;;;;1.02;0.20;;;;;7.40;101872.00;;;;5086928;28;20222;-74
2023/02/26 03:12:48;;;;;;;0.70;0.40;;;;;7.30;101870.00;;;;5084624;28;20225;-74
2023/02/26 03:15:18;;;;;;;0.77;0.30;;;;;7.30;101878.00;;;;5086621;28;20198;-74
2023/02/26 03:18:00;;;;;;;2.28;0.50;;;;;7.20;101878.00;;;;5085060;28;20634;-74
2023/02/26 03:20:32;;;;;;;1.48;0.22;;;;;7.30;101883.00;;;;5086712;28;20206;-74
2023/02/26 03:23:09;;;;;;;3.22;0.40;;;;;7.20;101887.00;;;;5086155;28;20213;-74
2023/02/26 03:25:45;;;;;;;1.45;0.30;;;;;7.20;101881.00;;;;5086113;28;20588;-74
2023/02/26 03:28:19;;;;;;;1.25;0.30;;;;;7.20;101884.00;;;;5086275;28;20205;-74
2023/02/26 03:30:53;;;;;;;1.38;0.30;;;;;7.20;101882.00;;;;5083652;28;20222;-74
2023/02/26 03:33:26;;;;;;;0.50;0.20;;;;;7.10;101893.00;;;;5082397;28;20562;-74
2023/02/26 03:35:59;;;;;;;1.15;0.32;;;;;7.10;101894.00;;;;5085292;28;20228;-74
2023/02/26 03:38:37;;;;;;;1.05;0.30;;;;;7.00;101901.00;;;;5084779;28;20691;-74
2023/02/26 03:41:09;;;;;;;1.13;0.13;;;;;7.10;101903.00;;;;5085576;28;20729;-74
2023/02/26 03:43:43;;;;;;;5.00;0.50;;;;;7.10;101908.00;;;;5085160;28;20195;-74
2023/02/26 03:46:15;;;;;;;0.60;0.35;;;;;7.10;101906.00;;;;5086553;28;20198;-73
2023/02/26 03:48:46;;;;;;;2.38;0.47;;;;;7.10;101909.00;;;;5084822;28;20234;-74
2023/02/26 03:51:14;;;;;;;1.75;0.50;;;;;7.10;101910.00;;;;5084192;28;20589;-74
2023/02/26 03:53:48;;;;;;;3.03;0.88;;;;;7.00;101912.00;;;;5083549;28;20186;-74
2023/02/26 03:56:20;;;;;;;2.15;0.20;;;;;7.00;101911.00;;;;5083227;28;20197;-74
2023/02/26 03:58:47;;;;;;;1.27;0.45;;;;;7.00;101914.00;;;;5084102;28;20206;-74
2023/02/26 04:01:20;;;;;;;2.05;0.28;;;;;7.00;101923.00;;;;5085856;28;20198;-74
2023/02/26 04:03:52;;;;;;;1.58;0.40;;;;;7.00;101921.00;;;;5084777;28;20202;-74
2023/02/26 04:06:20;;;;;;;1.25;0.65;;;;;7.00;101933.00;;;;5083004;28;20203;-73
2023/02/26 04:08:47;;;;;;;3.20;0.40;;;;;7.00;101927.00;;;;5079437;28;20648;-74
2023/02/26 04:11:18;;;;;;;2.17;0.40;;;;;6.90;101936.00;;;;5089049;28;20656;-73
2023/02/26 04:13:46;;;;;;;1.67;0.15;;;;;7.00;101936.00;;;;5087955;28;20221;-74
2023/02/26 04:16:14;;;;;;;0.52;0.20;;;;;7.00;101933.00;;;;5088998;28;20589;-74
2023/02/26 04:18:42;;;;;;;1.10;0.20;;;;;7.00;101939.00;;;;5086262;28;20194;-73
2023/02/26 04:21:13;;;;;;;0.22;0.20;;;;;6.90;101943.00;;;;5088602;28;20256;-74
2023/02/26 04:23:41;;;;;;;0.60;0.20;;;;;6.90;101947.00;;;;5087077;28;20194;-74
2023/02/26 04:26:08;;;;;;;2.17;0.10;;;;;6.90;101952.00;;;;5089522;28;20205;-72
2023/02/26 04:28:36;;;;;;;0.40;0.20;;;;;6.90;101955.00;;;;5088652;28;20205;-71
2023/02/26 04:31:04;;;;;;;0.85;0.30;;;;;6.90;101958.00;;;;5088970;28;20244;-72
2023/02/26 04:33:32;;;;;;;0.90;0.32;;;;;6.90;101965.00;;;;5090310;28;20199;-74
2023/02/26 04:35:59;;;;;;;1.73;0.20;;;;;6.90;101958.00;;;;5089904;28;20731;-74
2023/02/26 04:38:28;;;;;;;2.10;0.30;;;;;6.80;101968.00;;;;5090011;28;20671;-73
2023/02/26 04:40:56;;;;;;;1.00;0.20;;;;;6.90;101974.00;;;;5089850;28;20201;-73
2023/02/26 04:43:23;;;;;;;2.05;0.20;;;;;6.90;101976.00;;;;5091637;28;20202;-74
2023/02/26 04:45:51;;;;;;;1.35;0.25;;;;;6.80;101984.00;;;;5087777;28;20202;-74
2023/02/26 04:48:19;;;;;;;1.48;0.40;;;;;6.80;101987.00;;;;5090082;28;20599;-74
2023/02/26 04:50:47;;;;;;;1.05;0.20;;;;;6.80;101990.00;;;;5088743;28;20230;-74
2023/02/26 04:53:14;;;;;;;1.42;0.38;;;;;6.80;101985.00;;;;5079876;28;20195;-73
2023/02/26 04:55:43;;;;;;;3.70;0.30;;;;;6.80;101991.00;;;;5084949;28;20652;-73
2023/02/26 04:58:10;;;;;;;0.82;0.17;;;;;6.80;101995.00;;;;5090475;28;20194;-73
2023/02/26 05:00:38;;;;;;;1.55;0.13;;;;;6.80;101999.00;;;;5090783;28;20190;-74
2023/02/26 05:03:06;;;;;;;3.58;0.15;;;;;6.80;101998.00;;;;5089949;28;20230;-73
2023/02/26 05:05:33;;;;;;;0.40;0.20;;;;;6.80;101999.00;;;;5083855;28;20202;-73
2023/02/26 05:08:00;;;;;;;1.25;0.10;;;;;6.80;102001.00;;;;5088160;28;20580;-74
2023/02/26 05:10:27;;;;;;;1.80;0.20;;;;;6.80;102010.00;;;;5090015;28;20226;-73
2023/02/26 05:12:56;;;;;;;0.32;0.10;;;;;6.80;102014.00;;;;5087449;28;20222;-73
2023/02/26 05:15:23;;;;;;;0.47;0.20;;;;;6.80;102017.00;;;;5086761;28;20206;-74
2023/02/26 05:17:51;;;;;;;0.70;0.40;;;;;6.70;102017.00;;;;5085498;28;20202;-74
2023/02/26 05:20:18;;;;;;;0.68;0.30;;;;;6.70;102012.00;;;;5087774;28;20824;-73
2023/02/26 05:22:46;;;;;;;0.32;0.10;;;;;6.70;102019.00;;;;5086893;28;20647;-74
2023/02/26 05:25:13;;;;;;;2.78;0.45;;;;;6.70;102029.00;;;;5080168;28;20191;-74
2023/02/26 05:27:42;;;;;;;0.98;0.47;;;;;6.70;102023.00;;;;5088266;28;20209;-74
2023/02/26 05:30:14;;;;;;;1.02;0.17;;;;;6.70;102035.00;;;;5088225;28;20279;-73
2023/02/26 05:32:41;;;;;;;3.22;0.60;;;;;6.70;102035.00;;;;5085803;28;20194;-74
2023/02/26 05:35:10;;;;;;;1.20;0.17;;;;;6.70;102044.00;;;;5088918;28;20194;-74
2023/02/26 05:37:37;;;;;;;0.90;0.30;;;;;6.60;102040.00;;;;5086854;28;20206;-74
2023/02/26 05:40:09;;;;;;;2.42;0.45;;;;;6.60;102038.00;;;;5085276;28;20203;-74
2023/02/26 05:42:36;;;;;;;1.17;0.32;;;;;6.60;102037.00;;;;5084914;28;20279;-74
2023/02/26 05:45:05;;;;;;;1.52;0.32;;;;;6.60;102044.00;;;;5087804;28;20754;-74
2023/02/26 05:47:34;;;;;;;1.67;0.30;;;;;6.60;102048.00;;;;5085326;28;21629;-74
2023/02/26 05:50:01;;;;;;;2.35;0.50;;;;;6.60;102054.00;;;;5081657;28;20715;-73
2023/02/26 05:52:29;;;;;;;0.38;0.17;;;;;6.60;102063.00;;;;5084702;28;20326;-74
2023/02/26 05:54:56;;;;;;;0.98;0.10;;;;;6.50;102061.00;;;;5086213;28;20523;-74
2023/02/26 05:57:24;;;;;;;1.27;0.50;;;;;6.50;102071.00;;;;5087137;28;20225;-74
2023/02/26 05:59:51;;;;;;;1.52;0.40;;;;;6.50;102072.00;;;;5081588;28;20560;-74
2023/02/26 06:02:19;;;;;;;3.28;0.40;;;;;6.50;102075.00;;;;5085806;28;20581;-74
2023/02/26 06:04:48;;;;;;;0.57;0.28;;;;;6.50;102079.00;;;;5087132;28;20202;-73
2023/02/26 06:07:15;;;;;;;1.13;0.30;;;;;6.50;102089.00;;;;5084824;28;20190;-74
2023/02/26 06:09:42;;;;;;;0.90;0.10;;;;;6.40;102082.00;;;;5068967;28;20669;-73
2023/02/26 06:12:10;;;;;;;2.40;0.57;;;;;6.40;102089.00;;;;5086648;28;20570;-73
2023/02/26 06:14:37;;;;;;;1.80;0.20;;;;;6.40;102086.00;;;;5088155;28;20684;-73
2023/02/26 06:17:05;;;;;;;2.70;0.50;;;;;6.40;102088.00;;;;5084248;28;20206;-73
2023/02/26 06:19:33;;;;;;;0.93;0.30;;;;;6.40;102090.00;;;;5085694;28;20646;-73
2023/02/26 06:22:01;;;;;;;2.92;0.40;;;;;6.40;102087.00;;;;5083236;28;20194;-73
2023/02/26 06:24:29;;;;;;;4.53;0.30;;;;;6.40;102094.00;;;;5083027;28;20220;-73
2023/02/26 06:26:56;;;;;;;0.95;0.40;;;;;6.40;102101.00;;;;5086144;28;20206;-73
2023/02/26 06:29:23;;;;;;;0.35;0.20;;;;;6.40;102105.00;;;;5085480;28;20221;-73
2023/02/26 06:31:51;;;;;;;1.10;0.35;;;;;6.40;102099.00;;;;5085100;28;20237;-73
2023/02/26 06:34:18;;;;;;;1.65;0.38;;;;;6.40;102109.00;;;;5087606;28;20202;-73
2023/02/26 06:36:45;;;;;;;0.50;0.10;;;;;6.40;102134.00;;;;5077898;28;20206;-73
2023/02/26 06:39:14;;;;;;;2.42;0.38;;;;;6.30;102119.00;;;;5087055;28;20201;-73
2023/02/26 06:41:41;;;;;;;0.82;0.40;;;;;6.30;102116.00;;;;5087767;28;20202;-73
2023/02/26 06:44:09;;;;;;;0.90;0.40;;;;;6.30;102121.00;;;;5074282;28;20198;-74
2023/02/26 06:46:36;;;;;;;2.08;0.25;;;;;6.30;102125.00;;;;5082176;28;20664;-74
2023/02/26 06:49:04;;;;;;;5.63;0.73;;;;;6.30;102130.00;;;;5079789;28;20205;-74
2023/02/26 06:51:31;;;;;;;1.02;0.20;;;;;6.30;102140.00;;;;5080062;28;20237;-73
2023/02/26 06:53:59;;;;;;;0.57;0.20;;;;;6.30;102141.00;;;;5078394;28;20268;-73
2023/02/26 06:56:29;;;;;;;1.30;0.43;;;;;6.30;102136.00;;;;5080018;28;20844;-74
2023/02/26 06:58:56;;;;;;;1.58;0.25;;;;;6.30;102143.00;;;;5080938;28;20588;-73
2023/02/26 07:01:24;;;;;;;1.23;0.20;;;;;6.30;102158.00;;;;5076957;28;20198;-74
2023/02/26 07:03:52;;;;;;;0.47;0.10;;;;;6.30;102157.00;;;;5080337;28;20197;-73
2023/02/26 07:06:20;;;;;;;1.83;0.25;;;;;6.40;102166.00;;;;5080658;28;20198;-75
2023/02/26 07:08:47;;;;;;;1.92;0.35;;;;;6.40;102171.00;;;;5077319;28;20198;-75
2023/02/26 07:11:14;;;;;;;1.65;0.30;;;;;6.40;102181.00;;;;5079428;28;20320;-74
2023/02/26 07:13:43;;;;;;;2.00;0.55;;;;;6.40;102175.00;;;;5082673;28;20213;-73
2023/02/26 07:16:11;;;;;;;1.23;0.50;;;;;6.40;102181.00;;;;5078297;28;20198;-74
2023/02/26 07:18:38;;;;;;;4.32;0.60;;;;;6.50;102184.00;;;;5076946;28;20198;-73
2023/02/26 07:21:06;;;;;;;0.65;0.30;;;;;6.50;102188.00;;;;5081713;28;20213;-74
2023/02/26 07:23:34;;;;;;;0.82;0.32;;;;;6.50;102187.00;;;;5077323;28;20201;-74
2023/02/26 07:26:01;;;;;;;1.38;0.30;;;;;6.50;102189.00;;;;5080712;28;20191;-74
2023/02/26 07:28:29;;;;;;;0.50;0.20;;;;;6.60;102183.00;;;;5076784;28;20190;-75
2023/02/26 07:30:58;;;;;;;1.55;0.45;;;;;6.60;102192.00;;;;5076535;28;20309;-74
2023/02/26 07:33:27;;;;;;;0.77;0.30;;;;;6.70;102189.00;;;;5080915;28;20285;-75
2023/02/26 07:35:54;;;;;;;2.20;0.75;;;;;6.70;102194.00;;;;5073477;28;20199;-75
2023/02/26 07:38:22;;;;;;;2.50;0.68;;;;;6.70;102204.00;;;;5076959;28;20186;-74
2023/02/26 07:40:49;;;;;;;2.13;0.65;;;;;6.80;102202.00;;;;5076716;28;20202;-74
2023/02/26 07:43:17;;;;;;;3.85;0.55;;;;;6.80;102205.00;;;;5075919;28;20256;-74
2023/02/26 07:45:45;;;;;;;9.45;0.52;;;;;6.80;102208.00;;;;5084117;28;20202;-74
2023/02/26 07:48:14;;;;;;;1.10;0.17;;;;;6.90;102210.00;;;;5080587;28;20222;-73
2023/02/26 07:50:42;;;;;;;1.02;0.35;;;;;6.90;102220.00;;;;5084327;28;20246;-74
2023/02/26 07:53:09;;;;;;;1.52;0.47;;;;;6.90;102222.00;;;;5082365;28;20544;-74
2023/02/26 07:55:36;;;;;;;2.75;0.65;;;;;7.00;102219.00;;;;5081816;28;20203;-74
2023/02/26 07:58:03;;;;;;;0.82;0.30;;;;;7.10;102224.00;;;;5082286;28;20202;-74
2023/02/26 08:00:33;;;;;;;2.05;0.45;;;;;7.10;102227.00;;;;5082615;28;20205;-74
2023/02/26 08:03:01;;;;;;;3.83;0.63;;;;;7.20;102233.00;;;;5081761;28;20206;-74
2023/02/26 08:05:30;;;;;;;2.95;0.35;;;;;7.20;102234.00;;;;5082083;28;20683;-72
2023/02/26 08:07:57;;;;;;;0.88;0.30;;;;;7.30;102241.00;;;;5080603;28;20202;-72
2023/02/26 08:10:25;;;;;;;2.47;0.40;;;;;7.30;102239.00;;;;5080590;28;20225;-74
2023/02/26 08:12:52;;;;;;;1.15;0.55;;;;;7.30;102243.00;;;;5084046;28;20206;-74
2023/02/26 08:15:23;;;;;;;2.17;0.50;;;;;7.40;102240.00;;;;5082718;28;20200;-75
2023/02/26 08:17:52;;;;;;;2.42;0.32;;;;;7.40;102258.00;;;;5084794;28;20202;-73
2023/02/26 08:20:20;;;;;;;3.33;0.68;;;;;7.50;102259.00;;;;5085091;28;20198;-74
2023/02/26 08:22:50;;;;;;;1.80;0.40;;;;;7.50;102267.00;;;;5082131;28;20190;-73
2023/02/26 08:25:18;;;;;;;1.10;0.32;;;;;7.50;102267.00;;;;5086241;28;20205;-73
2023/02/26 08:27:45;;;;;;;0.75;0.30;;;;;7.60;102277.00;;;;5088168;28;20206;-73
2023/02/26 08:30:13;;;;;;;1.40;0.30;;;;;7.70;102277.00;;;;5090416;28;20209;-72
2023/02/26 08:32:41;;;;;;;1.67;0.68;;;;;7.70;102283.00;;;;5084244;28;20217;-73
2023/02/26 08:35:09;;;;;;;1.27;0.35;;;;;7.80;102284.00;;;;5087509;28;20190;-72
2023/02/26 08:37:37;;;;;;;0.60;0.30;;;;;7.80;102297.00;;;;5090050;28;20202;-72
2023/02/26 08:40:07;;;;;;;2.55;0.50;;;;;7.80;102296.00;;;;5090202;28;20206;-72
2023/02/26 08:42:35;;;;;;;1.02;0.50;;;;;7.90;102302.00;;;;5086312;28;20206;-73
2023/02/26 08:45:02;;;;;;;2.25;0.40;;;;;7.90;102302.00;;;;5086740;28;20198;-73
2023/02/26 08:47:30;;;;;;;1.95;0.40;;;;;8.00;102305.00;;;;5088683;28;20231;-74
2023/02/26 08:49:57;;;;;;;0.82;0.28;;;;;8.00;102305.00;;;;5073529;28;20217;-73
2023/02/26 08:52:25;;;;;;;1.42;0.35;;;;;8.00;102308.00;;;;5088504;28;20313;-74
2023/02/26 08:54:52;;;;;;;1.95;0.38;;;;;8.00;102312.00;;;;5088534;28;20202;-73
2023/02/26 08:57:22;;;;;;;2.55;0.30;;;;;8.10;102316.00;;;;5087126;28;20201;-73
2023/02/26 08:59:49;;;;;;;3.35;0.70;;;;;8.10;102306.00;;;;5087683;28;20198;-73
2023/02/26 09:02:16;;;;;;;0.80;0.40;;;;;8.20;102316.00;;;;5085928;28;20194;-73
2023/02/26 09:04:44;;;;;;;0.77;0.40;;;;;8.20;102325.00;;;;5089218;28;20202;-73
2023/02/26 09:07:11;;;;;;;1.70;0.55;;;;;8.30;102335.00;;;;5088570;28;20213;-72
2023/02/26 09:09:38;;;;;;;1.92;0.60;;;;;8.40;102333.00;;;;5098121;28;20189;-72
2023/02/26 09:12:06;;;;;;;0.60;0.20;;;;;8.40;102330.00;;;;5083092;28;20229;-72
2023/02/26 09:14:34;;;;;;;2.15;0.57;;;;;8.50;102338.00;;;;5081351;28;20194;-72
2023/02/26 09:17:02;;;;;;;1.77;0.40;;;;;8.60;102335.00;;;;5089567;28;20201;-73
2023/02/26 09:19:29;;;;;;;1.95;0.40;;;;;8.70;102342.00;;;;5087702;28;20213;-73
2023/02/26 09:21:56;;;;;;;1.27;0.30;;;;;8.80;102341.00;;;;5088470;28;20249;-72
2023/02/26 09:24:23;;;;;;;0.38;0.17;;;;;8.90;102340.00;;;;5086895;28;20629;-72
2023/02/26 09:26:51;;;;;;;1.30;0.40;;;;;8.90;102345.00;;;;5087854;28;20202;-72
2023/02/26 09:29:18;;;;;;;1.23;0.25;;;;;9.00;102336.00;;;;5089552;28;20280;-73
2023/02/26 09:31:47;;;;;;;1.35;0.30;;;;;9.00;102346.00;;;;5087560;28;20237;-74
2023/02/26 09:34:14;;;;;;;3.17;0.40;;;;;9.10;102349.00;;;;5087581;28;20210;-74
2023/02/26 09:36:42;;;;;;;1.88;0.20;;;;;9.20;102347.00;;;;5086081;28;20198;-74
2023/02/26 09:39:10;;;;;;;3.25;0.40;;;;;9.20;102350.00;;;;5090048;28;20210;-74
2023/02/26 09:41:40;;;;;;;1.45;0.30;;;;;9.20;102352.00;;;;5089299;28;20199;-74
2023/02/26 09:44:17;;;;;;;0.22;0.10;;;;;9.20;102346.00;;;;5090261;28;20198;-74
2023/02/26 09:46:56;;;;;;;1.20;0.47;;;;;9.30;102357.00;;;;5084646;28;20194;-74
2023/02/26 09:49:32;;;;;;;1.75;0.32;;;;;9.40;102357.00;;;;5085849;28;20194;-74
2023/02/26 09:52:08;;;;;;;1.38;0.35;;;;;9.40;102350.00;;;;5087965;28;20235;-74
2023/02/26 09:54:43;;;;;;;0.45;0.17;;;;;9.50;102358.00;;;;5089325;28;20567;-74
2023/02/26 09:57:15;;;;;;;1.45;0.30;;;;;9.60;102368.00;;;;5087135;28;20194;-74
2023/02/26 09:59:42;;;;;;;0.80;0.20;;;;;9.60;102364.00;;;;5086034;28;20276;-74
2023/02/26 10:02:20;;;;;;;2.20;0.52;;;;;9.60;102361.00;;;;5087051;28;20574;-74
2023/02/26 10:04:55;;;;;;;1.58;0.30;;;;;9.70;102376.00;;;;5088301;28;20224;-74
2023/02/26 10:07:33;;;;;;;1.48;0.45;;;;;9.80;102375.00;;;;5070666;28;20186;-74
2023/02/26 10:10:17;;;;;;;0.55;0.20;;;;;9.80;102393.00;;;;5088691;28;20202;-74
2023/02/26 10:12:46;;;;;;;1.13;0.20;;;;;9.90;102384.00;;;;5089100;28;20230;-74
2023/02/26 10:15:18;;;;;;;0.60;0.10;;;;;10.00;102391.00;;;;5089091;28;20206;-74
2023/02/26 10:18:05;;;;;;;1.50;0.30;;;;;10.00;102398.00;;;;5088416;28;20205;-74
2023/02/26 10:20:41;;;;;;;0.70;0.10;;;;;10.00;102395.00;;;;5089206;28;20201;-74
2023/02/26 10:23:16;;;;;;;1.20;0.30;;;;;10.10;102393.00;;;;5086684;28;20194;-74
2023/02/26 10:25:48;;;;;;;1.95;0.40;;;;;10.20;102398.00;;;;5088421;28;20617;-74
2023/02/26 10:28:41;;;;;;;0.22;0.10;;;;;10.20;102391.00;;;;5089731;28;20221;-74
2023/02/26 10:31:17;;;;;;;1.35;0.43;;;;;10.30;102400.00;;;;5085775;28;20202;-74
2023/02/26 10:33:52;;;;;;;0.63;0.28;;;;;10.30;102406.00;;;;5085807;28;20233;-74
2023/02/26 10:36:29;;;;;;;2.67;0.28;;;;;10.40;102396.00;;;;5086030;28;20193;-74
2023/02/26 10:39:03;;;;;;;0.35;0.20;;;;;10.50;102409.00;;;;5085903;28;20234;-74
2023/02/26 10:41:34;;;;;;;0.60;0.10;;;;;10.60;102405.00;;;;5088030;28;20204;-74
2023/02/26 10:44:09;;;;;;;0.38;0.17;;;;;10.70;102417.00;;;;5086689;28;20198;-74
2023/02/26 10:46:46;;;;;;;1.17;0.30;;;;;10.80;102426.00;;;;5088708;28;20204;-74
2023/02/26 10:49:36;;;;;;;0.60;0.20;;;;;10.80;102411.00;;;;5086590;28;20364;-74
2023/02/26 10:52:12;;;;;;;0.45;0.10;;;;;10.90;102411.00;;;;5088151;28;20715;-75
2023/02/26 10:54:46;;;;;;;0.43;0.17;;;;;11.10;102430.00;;;;5089039;28;21046;-76
2023/02/26 10:57:20;;;;;;;1.13;0.60;;;;;11.10;102426.00;;;;5082542;28;20202;-74
2023/02/26 10:59:48;;;;;;;0.82;0.20;;;;;11.20;102419.00;;;;5084506;28;20194;-75
2023/02/26 11:02:33;;;;;;;1.45;0.30;;;;;11.20;102430.00;;;;5086298;28;20218;-75
2023/02/26 11:05:02;;;;;;;0.63;0.20;;;;;11.40;102423.00;;;;5087937;28;20202;-75
2023/02/26 11:07:32;;;;;;;0.70;0.25;;;;;11.40;102437.00;;;;5083389;28;20221;-75
2023/02/26 11:10:00;;;;;;;0.88;0.20;;;;;11.40;102431.00;;;;5085444;28;20466;-74
2023/02/26 11:12:27;;;;;;;0.77;0.10;;;;;11.50;102428.00;;;;5086167;28;20240;-74
2023/02/26 11:14:55;;;;;;;2.33;0.20;;;;;11.60;102436.00;;;;5085879;28;20263;-75
2023/02/26 11:17:26;;;;;;;1.55;0.20;;;;;11.60;102441.00;;;;5085621;28;20208;-74
2023/02/26 11:19:58;;;;;;;0.57;0.10;;;;;11.60;102435.00;;;;5085652;28;20190;-74
2023/02/26 11:22:33;;;;;;;1.23;0.20;;;;;11.70;102429.00;;;;5085785;28;20558;-74
2023/02/26 11:25:00;;;;;;;1.83;0.30;;;;;11.80;102431.00;;;;5066939;28;20292;-74
2023/02/26 11:27:34;;;;;;;0.85;0.15;;;;;11.80;102429.00;;;;5068004;28;20688;-74
2023/02/26 11:30:07;;;;;;;0.93;0.20;;;;;11.80;102428.00;;;;5068450;28;20203;-74
2023/02/26 11:32:36;;;;;;;0.50;0.28;;;;;11.90;102423.00;;;;5067902;28;20288;-74
2023/02/26 11:35:06;;;;;;;1.20;0.35;;;;;12.00;102423.00;;;;5077428;28;20194;-73
2023/02/26 11:37:38;;;;;;;0.93;0.30;;;;;12.00;102431.00;;;;5086355;28;20541;-74
2023/02/26 11:40:13;;;;;;;1.85;0.40;;;;;12.00;102441.00;;;;5086773;28;20199;-74
2023/02/26 11:42:48;;;;;;;1.50;0.30;;;;;12.00;102433.00;;;;5088278;28;20205;-73
2023/02/26 11:45:18;;;;;;;0.60;0.20;;;;;12.00;102435.00;;;;5088238;28;20705;-73
2023/02/26 11:47:46;;;;;;;1.50;0.38;;;;;12.10;102424.00;;;;5087447;28;20317;-73
2023/02/26 11:50:17;;;;;;;1.30;0.10;;;;;12.10;102421.00;;;;5087358;28;20459;-74
2023/02/26 11:52:55;;;;;;;1.08;0.20;;;;;12.10;102417.00;;;;5087002;28;20226;-74
2023/02/26 11:55:28;;;;;;;3.17;0.60;;;;;12.10;102420.00;;;;5086760;28;20218;-74
2023/02/26 11:57:56;;;;;;;0.95;0.13;;;;;12.10;102418.00;;;;5088056;28;20205;-73
2023/02/26 12:00:26;;;;;;;0.28;0.10;;;;;12.10;102430.00;;;;5087521;28;20587;-74
2023/02/26 12:03:00;;;;;;;1.33;0.35;;;;;12.00;102422.00;;;;5085441;28;20671;-73
2023/02/26 12:05:28;;;;;;;0.95;0.30;;;;;12.10;102418.00;;;;5087666;28;20201;-73
2023/02/26 12:07:57;;;;;;;1.40;0.20;;;;;12.10;102415.00;;;;5087722;28;20219;-74
2023/02/26 12:10:41;;;;;;;0.43;0.15;;;;;12.10;102416.00;;;;5078926;28;20219;-73
2023/02/26 12:13:16;;;;;;;4.07;0.60;;;;;12.20;102416.00;;;;5087249;28;20230;-73
2023/02/26 12:15:52;;;;;;;1.63;0.13;;;;;12.30;102416.00;;;;5087909;28;20202;-74
2023/02/26 12:18:43;;;;;;;1.65;0.43;;;;;12.30;102415.00;;;;5088112;28;20209;-73
2023/02/26 12:21:23;;;;;;;1.95;0.50;;;;;12.40;102425.00;;;;5087866;28;20206;-74
2023/02/26 12:24:30;;;;;;;0.70;0.30;;;;;12.30;102422.00;;;;5086913;28;20213;-74
2023/02/26 12:27:04;;;;;;;1.40;0.20;;;;;12.40;102422.00;;;;5066623;28;20210;-74
2023/02/26 12:29:53;;;;;;;0.75;0.17;;;;;12.40;102424.00;;;;5088312;28;20190;-73
2023/02/26 12:32:45;;;;;;;0.35;0.13;;;;;12.40;102418.00;;;;5090907;28;20221;-74
2023/02/26 12:35:37;;;;;;;0.95;0.30;;;;;12.40;102413.00;;;;5091794;28;20664;-74